Time;durP1;ratioP1;P1;durP2;ratioP2;P2;SDS_P1;SDS_P2;PMS_P1;PMS_P2;Temp;Humidity;BMP_temperature;BMP_pressure;BME280_temperature;BME280_humidity;BME280_pressure;Samples;Min_cycle;Max_cycle;Signal;HPM_P1;HPM_P2
2022/08/05 00:01:12;;;;;;;7.43;3.60;;;23.60;99.90;;;;;;4357021;28;10000305;-82
2022/08/05 00:03:38;;;;;;;5.10;3.50;;;23.60;99.90;;;;;;5061617;28;20329;-83
2022/08/05 00:06:03;;;;;;;7.88;3.25;;;23.50;99.90;;;;;;5048678;28;20047;-83
2022/08/05 00:08:29;;;;;;;8.48;3.67;;;23.60;99.90;;;;;;5048760;28;20541;-82
2022/08/05 00:10:55;;;;;;;12.05;3.65;;;23.50;99.90;;;;;;5048237;28;20028;-82
2022/08/05 00:13:21;;;;;;;10.48;3.70;;;23.50;99.90;;;;;;5071564;28;20115;-82
2022/08/05 00:15:46;;;;;;;12.48;4.60;;;23.40;99.90;;;;;;5064881;28;20481;-82
2022/08/05 00:18:12;;;;;;;6.03;3.50;;;23.40;99.90;;;;;;5060815;28;20024;-82
2022/08/05 00:20:37;;;;;;;5.38;3.38;;;23.40;99.90;;;;;;5050085;28;20102;-81
2022/08/05 00:23:03;;;;;;;8.70;3.45;;;23.40;99.90;;;;;;5064188;28;20047;-82
2022/08/05 00:25:29;;;;;;;12.65;3.88;;;23.40;99.90;;;;;;5057729;28;20028;-82
2022/08/05 00:27:54;;;;;;;7.38;3.78;;;23.30;99.90;;;;;;5056665;28;20142;-82
2022/08/05 00:30:20;;;;;;;5.95;3.70;;;23.30;99.90;;;;;;5054706;28;20021;-82
2022/08/05 00:32:45;;;;;;;11.35;3.90;;;23.30;99.90;;;;;;5063448;28;20278;-82
2022/08/05 00:35:11;;;;;;;7.53;3.65;;;23.30;99.90;;;;;;5067638;28;20012;-82
2022/08/05 00:37:36;;;;;;;7.07;3.65;;;23.30;99.90;;;;;;5059102;28;20549;-82
2022/08/05 00:40:02;;;;;;;12.15;3.63;;;23.30;99.90;;;;;;5055794;28;20049;-81
2022/08/05 00:42:30;;;;;;;9.50;4.32;;;23.30;99.90;;;;;;5051672;28;20024;-82
2022/08/05 00:44:56;;;;;;;9.95;4.03;;;23.20;99.90;;;;;;5060396;28;20086;-82
2022/08/05 00:47:21;;;;;;;15.00;5.00;;;23.20;99.90;;;;;;5048048;28;20020;-85
2022/08/05 00:49:47;;;;;;;10.32;4.18;;;23.20;99.90;;;;;;5074716;28;20024;-82
2022/08/05 00:52:12;;;;;;;27.00;6.80;;;23.00;99.90;;;;;;5058864;28;20040;-83
2022/08/05 00:54:38;;;;;;;9.65;4.70;;;23.00;99.90;;;;;;5054203;28;20091;-84
2022/08/05 00:57:04;;;;;;;9.90;4.45;;;22.90;99.90;;;;;;5057787;28;20032;-83
2022/08/05 00:59:29;;;;;;;10.63;4.30;;;22.90;99.90;;;;;;5053476;28;20100;-82
2022/08/05 01:01:55;;;;;;;10.95;3.92;;;22.80;99.90;;;;;;5052186;28;20202;-82
2022/08/05 01:04:21;;;;;;;10.70;3.92;;;22.80;99.90;;;;;;5053073;28;20039;-82
2022/08/05 01:06:47;;;;;;;7.95;4.00;;;22.80;99.90;;;;;;5066643;28;20484;-83
2022/08/05 01:09:13;;;;;;;9.75;4.05;;;22.80;99.90;;;;;;5064389;28;20029;-83
2022/08/05 01:11:40;;;;;;;9.35;4.28;;;22.70;99.90;;;;;;5074726;28;20063;-82
2022/08/05 01:14:19;;;;;;;14.43;4.63;;;22.70;99.90;;;;;;5063927;28;20056;-83
2022/08/05 01:16:53;;;;;;;7.35;4.05;;;22.70;99.90;;;;;;5061484;28;20037;-82
2022/08/05 01:19:25;;;;;;;11.07;4.75;;;22.60;99.90;;;;;;5063649;28;20033;-83
2022/08/05 01:22:32;;;;;;;8.65;4.45;;;22.50;99.90;;;;;;5059804;28;20057;-82
2022/08/05 01:25:29;;;;;;;5.55;3.80;;;22.50;99.90;;;;;;5062564;28;20036;-82
2022/08/05 01:28:08;;;;;;;5.22;3.80;;;22.50;99.90;;;;;;5065287;28;20029;-82
2022/08/05 01:30:38;;;;;;;10.30;4.30;;;22.40;99.90;;;;;;5079865;28;20217;-82
2022/08/05 01:33:08;;;;;;;6.00;3.90;;;22.40;99.90;;;;;;5075870;28;20028;-81
2022/08/05 01:35:38;;;;;;;10.13;5.10;;;22.30;99.90;;;;;;5070833;28;20039;-82
2022/08/05 01:38:05;;;;;;;8.60;4.50;;;22.10;99.90;;;;;;5070037;28;20130;-81
2022/08/05 01:40:32;;;;;;;6.18;5.38;;;22.00;99.90;;;;;;5063459;28;20455;-81
2022/08/05 01:43:00;;;;;;;11.77;4.90;;;22.00;99.90;;;;;;5062185;28;20062;-81
2022/08/05 01:45:28;;;;;;;8.20;4.80;;;21.90;99.90;;;;;;5049242;28;20029;-81
2022/08/05 01:47:55;;;;;;;8.20;4.90;;;21.80;99.90;;;;;;5053465;28;20630;-81
2022/08/05 01:50:26;;;;;;;9.45;6.10;;;21.70;99.90;;;;;;5064569;28;20067;-81
2022/08/05 01:52:54;;;;;;;15.35;6.18;;;21.70;99.90;;;;;;5057663;28;20508;-82
2022/08/05 01:55:22;;;;;;;16.48;7.93;;;21.60;99.90;;;;;;5052794;28;20036;-83
2022/08/05 01:57:51;;;;;;;14.07;7.32;;;21.60;99.90;;;;;;5053416;28;20575;-83
2022/08/05 02:00:17;;;;;;;13.00;6.65;;;21.50;99.90;;;;;;5050597;28;20521;-83
2022/08/05 02:02:56;;;;;;;13.43;8.15;;;21.40;99.90;;;;;;5062539;28;20048;-83
2022/08/05 02:05:29;;;;;;;9.55;6.53;;;21.40;99.90;;;;;;5055716;28;20029;-83
2022/08/05 02:07:58;;;;;;;9.77;6.45;;;21.40;99.90;;;;;;5057124;28;20020;-84
2022/08/05 02:10:27;;;;;;;14.07;8.45;;;21.40;99.90;;;;;;5053714;28;20090;-83
2022/08/05 02:13:03;;;;;;;12.40;7.60;;;21.40;99.90;;;;;;5054443;28;20052;-83
2022/08/05 02:15:34;;;;;;;14.65;8.10;;;21.30;99.90;;;;;;5061930;28;20115;-84
2022/08/05 02:18:09;;;;;;;13.05;6.80;;;21.40;99.90;;;;;;5056851;28;20414;-84
2022/08/05 02:20:48;;;;;;;11.95;6.53;;;21.50;99.90;;;;;;5056286;28;20041;-84
2022/08/05 02:23:17;;;;;;;9.13;7.18;;;21.40;99.90;;;;;;5054783;28;20025;-84
2022/08/05 02:25:43;;;;;;;11.38;8.00;;;21.50;99.90;;;;;;5064783;28;20105;-83
2022/08/05 02:28:10;;;;;;;10.38;7.68;;;21.50;99.90;;;;;;5061019;28;20052;-83
2022/08/05 02:30:49;;;;;;;19.00;8.05;;;21.50;99.90;;;;;;5051688;28;20040;-83
2022/08/05 02:33:17;;;;;;;10.90;8.07;;;21.40;99.90;;;;;;5055183;28;20029;-83
2022/08/05 02:35:44;;;;;;;14.45;8.98;;;21.50;99.90;;;;;;5061796;28;20482;-80
2022/08/05 02:38:11;;;;;;;16.13;8.95;;;21.50;99.90;;;;;;5062865;28;20052;-79
2022/08/05 02:40:41;;;;;;;15.27;9.07;;;21.50;99.90;;;;;;5055181;28;20086;-79
2022/08/05 02:43:08;;;;;;;10.57;7.93;;;21.30;99.90;;;;;;5058260;28;20616;-80
2022/08/05 02:45:35;;;;;;;13.27;8.35;;;21.10;99.90;;;;;;5055526;28;20512;-81
2022/08/05 02:48:02;;;;;;;11.75;8.23;;;21.10;99.90;;;;;;5052720;28;20024;-81
2022/08/05 02:50:28;;;;;;;12.25;7.63;;;21.00;99.90;;;;;;5050612;28;20370;-81
2022/08/05 02:52:55;;;;;;;15.30;8.30;;;21.00;99.90;;;;;;5057842;28;20036;-81
2022/08/05 02:55:21;;;;;;;14.90;8.57;;;21.00;99.90;;;;;;5058013;28;20536;-81
2022/08/05 02:57:48;;;;;;;17.30;9.10;;;20.90;99.90;;;;;;5048899;28;20184;-80
2022/08/05 03:00:14;;;;;;;16.55;9.65;;;20.90;99.90;;;;;;5046490;28;20036;-80
2022/08/05 03:02:42;;;;;;;14.25;11.07;;;20.90;99.90;;;;;;5049057;28;20081;-80
2022/08/05 03:05:10;;;;;;;12.55;8.38;;;20.90;99.90;;;;;;5049457;28;20031;-81
2022/08/05 03:07:37;;;;;;;15.63;8.43;;;20.80;99.90;;;;;;5061152;28;20032;-81
2022/08/05 03:10:03;;;;;;;16.00;8.65;;;20.80;99.90;;;;;;5054705;28;20025;-80
2022/08/05 03:12:30;;;;;;;13.82;7.80;;;20.80;99.90;;;;;;5051413;28;20056;-80
2022/08/05 03:14:55;;;;;;;11.35;7.97;;;20.80;99.90;;;;;;5057517;28;20120;-80
2022/08/05 03:17:21;;;;;;;10.23;7.38;;;20.80;99.90;;;;;;5053153;28;20099;-80
2022/08/05 03:19:47;;;;;;;11.75;6.95;;;20.80;99.90;;;;;;5057102;28;20024;-80
2022/08/05 03:22:13;;;;;;;10.50;6.97;;;20.80;99.90;;;;;;5054294;28;20406;-80
2022/08/05 03:24:40;;;;;;;10.27;6.63;;;20.80;99.90;;;;;;5050083;28;20480;-80
2022/08/05 03:27:06;;;;;;;10.07;6.90;;;20.90;99.90;;;;;;5054913;28;20115;-79
2022/08/05 03:29:32;;;;;;;11.25;6.85;;;20.90;99.90;;;;;;5064752;28;20036;-79
2022/08/05 03:31:57;;;;;;;10.15;6.32;;;20.80;99.90;;;;;;5060561;28;20056;-79
2022/08/05 03:34:24;;;;;;;9.48;6.90;;;20.80;99.90;;;;;;5050476;28;20560;-79
2022/08/05 03:36:49;;;;;;;7.90;6.07;;;20.80;99.90;;;;;;5061600;28;20142;-78
2022/08/05 03:39:15;;;;;;;9.35;6.20;;;20.80;99.90;;;;;;5051982;28;20214;-79
2022/08/05 03:41:40;;;;;;;9.35;5.70;;;20.80;99.90;;;;;;5056616;28;20021;-79
2022/08/05 03:44:06;;;;;;;9.85;5.95;;;20.80;99.90;;;;;;5052734;28;20028;-79
2022/08/05 03:46:32;;;;;;;8.38;6.35;;;20.80;99.90;;;;;;5051114;28;20037;-78
2022/08/05 03:48:58;;;;;;;8.23;5.43;;;20.80;99.90;;;;;;5057215;28;20502;-78
2022/08/05 03:51:34;;;;;;;7.85;5.20;;;20.80;99.90;;;;;;5053566;28;20487;-78
2022/08/05 03:54:07;;;;;;;9.73;5.22;;;20.70;99.90;;;;;;5045417;28;20459;-78
2022/08/05 03:56:37;;;;;;;;;;;20.70;99.90;;;;;;5055203;28;20029;-78
2022/08/05 03:59:07;;;;;;;6.88;4.95;;;20.70;99.90;;;;;;5045919;28;19965;-78
2022/08/05 04:01:36;;;;;;;7.45;4.82;;;20.70;99.90;;;;;;5052116;28;20040;-78
2022/08/05 04:04:03;;;;;;;7.65;4.85;;;20.60;99.90;;;;;;5048885;28;20033;-78
2022/08/05 04:06:29;;;;;;;7.50;3.85;;;20.60;99.90;;;;;;5051209;28;20459;-78
2022/08/05 04:08:56;;;;;;;8.32;4.55;;;20.50;99.90;;;;;;5051433;28;20032;-77
2022/08/05 04:11:21;;;;;;;5.65;4.25;;;20.50;99.90;;;;;;5058092;28;20029;-78
2022/08/05 04:13:48;;;;;;;6.03;4.13;;;20.50;99.90;;;;;;5058422;28;20036;-77
2022/08/05 04:16:14;;;;;;;4.05;3.65;;;20.50;99.90;;;;;;5048767;28;20110;-78
2022/08/05 04:18:40;;;;;;;9.65;5.40;;;20.50;99.90;;;;;;5052990;28;20488;-78
2022/08/05 04:21:06;;;;;;;11.27;6.75;;;20.50;99.90;;;;;;5058606;28;20062;-78
2022/08/05 04:23:34;;;;;;;11.90;6.78;;;20.40;99.90;;;;;;5057868;28;20036;-78
2022/08/05 04:26:00;;;;;;;11.15;6.55;;;20.30;99.90;;;;;;5060188;28;20035;-78
2022/08/05 04:28:25;;;;;;;8.55;6.88;;;20.30;99.90;;;;;;5046333;28;20024;-79
2022/08/05 04:30:51;;;;;;;11.45;7.45;;;20.20;99.90;;;;;;5052159;28;20122;-80
2022/08/05 04:33:17;;;;;;;12.63;8.18;;;20.10;99.90;;;;;;5045585;28;20060;-80
2022/08/05 04:35:43;;;;;;;13.10;7.47;;;20.10;99.90;;;;;;5053005;28;20025;-81
2022/08/05 04:38:09;;;;;;;10.07;6.25;;;20.00;99.90;;;;;;5064155;28;20029;-81
2022/08/05 04:40:36;;;;;;;9.82;8.55;;;20.00;99.90;;;;;;5053664;28;20040;-80
2022/08/05 04:43:02;;;;;;;8.23;6.68;;;20.00;99.90;;;;;;5052679;28;20032;-80
2022/08/05 04:45:28;;;;;;;11.65;8.70;;;20.00;99.90;;;;;;5052484;28;20355;-81
2022/08/05 04:48:01;;;;;;;10.85;8.48;;;20.00;99.90;;;;;;5050627;28;20075;-80
2022/08/05 04:50:26;;;;;;;9.88;7.47;;;20.10;99.90;;;;;;5055481;28;20441;-80
2022/08/05 04:52:52;;;;;;;10.25;6.45;;;20.10;99.90;;;;;;5052596;28;20028;-80
2022/08/05 04:55:18;;;;;;;8.50;6.70;;;20.10;99.90;;;;;;5045444;28;20472;-80
2022/08/05 04:57:45;;;;;;;10.13;5.43;;;20.10;99.90;;;;;;5060397;28;20244;-80
2022/08/05 05:00:11;;;;;;;9.55;6.55;;;20.10;99.90;;;;;;5058892;28;20032;-80
2022/08/05 05:02:37;;;;;;;7.75;6.40;;;20.10;99.90;;;;;;5049752;28;20174;-80
2022/08/05 05:05:03;;;;;;;8.30;6.07;;;20.10;99.90;;;;;;5043516;28;20315;-79
2022/08/05 05:07:29;;;;;;;6.80;5.70;;;20.10;99.90;;;;;;5051647;28;20231;-79
2022/08/05 05:09:55;;;;;;;9.55;6.22;;;20.10;99.90;;;;;;5043742;28;20106;-78
2022/08/05 05:12:21;;;;;;;8.38;5.65;;;20.20;99.90;;;;;;5049322;28;20439;-78
2022/08/05 05:14:46;;;;;;;7.30;5.70;;;20.20;99.90;;;;;;5051486;28;20024;-79
2022/08/05 05:17:12;;;;;;;7.97;5.82;;;20.20;99.90;;;;;;5047668;28;20401;-79
2022/08/05 05:19:39;;;;;;;6.80;5.38;;;20.30;99.90;;;;;;5045243;28;20029;-78
2022/08/05 05:22:04;;;;;;;5.85;4.93;;;20.40;99.90;;;;;;5054760;28;20082;-78
2022/08/05 05:24:30;;;;;;;12.40;6.85;;;20.40;99.90;;;;;;5055161;28;20767;-78
2022/08/05 05:26:56;;;;;;;10.05;6.63;;;20.40;99.90;;;;;;5056604;28;20451;-78
2022/08/05 05:29:21;;;;;;;7.05;5.68;;;20.40;99.90;;;;;;5071549;28;20111;-77
2022/08/05 05:31:47;;;;;;;8.90;6.60;;;20.50;99.90;;;;;;5062144;28;20036;-77
2022/08/05 05:34:12;;;;;;;6.97;5.47;;;20.50;99.90;;;;;;5078024;28;20033;-78
2022/08/05 05:36:38;;;;;;;7.82;5.72;;;20.50;99.90;;;;;;5065372;28;20676;-77
2022/08/05 05:39:03;;;;;;;12.40;8.32;;;20.60;99.90;;;;;;5061437;28;20687;-77
2022/08/05 05:41:29;;;;;;;12.27;6.70;;;20.60;99.90;;;;;;5054201;28;20383;-77
2022/08/05 05:43:54;;;;;;;9.50;6.60;;;20.60;99.90;;;;;;5054987;28;20027;-78
2022/08/05 05:46:20;;;;;;;8.23;6.05;;;20.60;99.90;;;;;;5067775;28;20052;-77
2022/08/05 05:48:47;;;;;;;10.02;6.30;;;20.60;99.90;;;;;;5069829;28;20036;-77
2022/08/05 05:51:21;;;;;;;6.38;5.07;;;20.70;99.90;;;;;;5063646;28;20028;-77
2022/08/05 05:53:47;;;;;;;9.20;6.50;;;20.80;99.90;;;;;;5062654;28;20543;-77
2022/08/05 05:56:12;;;;;;;10.32;6.55;;;20.80;99.90;;;;;;5073736;28;20031;-77
2022/08/05 05:58:38;;;;;;;8.02;5.97;;;20.80;99.90;;;;;;5070569;28;20111;-77
2022/08/05 06:01:04;;;;;;;7.78;5.13;;;20.80;99.90;;;;;;5067014;28;20031;-77
2022/08/05 06:03:29;;;;;;;7.68;5.40;;;20.80;99.90;;;;;;5066463;28;20052;-77
2022/08/05 06:05:55;;;;;;;7.90;6.00;;;20.90;99.90;;;;;;5059838;28;20392;-77
2022/08/05 06:08:20;;;;;;;9.40;5.90;;;20.90;99.90;;;;;;5047137;28;20782;-77
2022/08/05 06:10:46;;;;;;;7.30;5.85;;;20.90;99.90;;;;;;5058610;28;20480;-76
2022/08/05 06:13:12;;;;;;;8.35;5.78;;;20.90;99.90;;;;;;5049341;28;20025;-77
2022/08/05 06:15:37;;;;;;;9.27;5.88;;;20.90;99.90;;;;;;5073546;28;20381;-77
2022/08/05 06:18:03;;;;;;;10.40;6.22;;;20.90;99.90;;;;;;5067197;28;20485;-76
2022/08/05 06:20:29;;;;;;;8.60;6.03;;;21.00;99.90;;;;;;5057405;28;20036;-76
2022/08/05 06:22:54;;;;;;;9.55;6.30;;;21.00;99.90;;;;;;5060519;28;20106;-76
2022/08/05 06:25:20;;;;;;;9.40;6.20;;;21.00;99.90;;;;;;5078591;28;20036;-77
2022/08/05 06:27:45;;;;;;;7.57;6.45;;;21.00;99.90;;;;;;5059904;28;20492;-76
2022/08/05 06:30:14;;;;;;;10.15;6.68;;;21.10;99.90;;;;;;5056602;28;20020;-77
2022/08/05 06:32:43;;;;;;;8.73;6.50;;;21.10;99.90;;;;;;5054555;28;20515;-76
2022/08/05 06:35:08;;;;;;;9.27;7.43;;;21.10;99.90;;;;;;5068970;28;20106;-77
2022/08/05 06:37:34;;;;;;;9.93;6.75;;;21.20;99.90;;;;;;5055800;28;20054;-77
2022/08/05 06:39:59;;;;;;;11.02;6.45;;;21.20;99.90;;;;;;5073410;28;20032;-77
2022/08/05 06:42:25;;;;;;;7.65;6.25;;;21.30;99.90;;;;;;5054122;28;20025;-77
2022/08/05 06:44:51;;;;;;;12.07;7.20;;;21.40;99.90;;;;;;5062760;28;20520;-76
2022/08/05 06:47:16;;;;;;;10.90;6.63;;;21.40;99.90;;;;;;5078429;28;20394;-81
2022/08/05 06:49:42;;;;;;;12.10;6.80;;;21.40;99.90;;;;;;5047169;28;20043;-76
2022/08/05 06:52:08;;;;;;;9.15;6.80;;;21.40;99.90;;;;;;5064078;28;20573;-78
2022/08/05 06:54:33;;;;;;;10.30;7.45;;;21.40;99.90;;;;;;5052563;28;20321;-79
2022/08/05 06:56:59;;;;;;;10.60;7.45;;;21.40;99.90;;;;;;5067023;28;20028;-80
2022/08/05 06:59:24;;;;;;;10.65;7.88;;;21.40;99.90;;;;;;5054811;28;20032;-81
2022/08/05 07:01:50;;;;;;;10.13;7.10;;;21.30;99.90;;;;;;5080106;28;20105;-78
2022/08/05 07:04:16;;;;;;;14.07;8.05;;;21.30;99.90;;;;;;5056298;28;20024;-81
2022/08/05 07:06:42;;;;;;;9.55;7.55;;;21.30;99.90;;;;;;5081271;28;20530;-78
2022/08/05 07:09:07;;;;;;;12.57;7.78;;;21.30;99.90;;;;;;5058937;28;20395;-80
2022/08/05 07:11:34;;;;;;;11.77;7.95;;;21.40;99.90;;;;;;5051391;28;20123;-77
2022/08/05 07:16:50;;;;;;;10.38;7.60;;;21.50;99.90;;;;;;5053881;28;20137;-77
2022/08/05 07:19:20;;;;;;;9.75;7.20;;;21.50;99.90;;;;;;5056392;28;20028;-78
2022/08/05 07:21:48;;;;;;;9.52;7.38;;;21.60;99.90;;;;;;5053934;28;20106;-79
2022/08/05 07:24:14;;;;;;;13.38;8.07;;;21.60;99.90;;;;;;5066403;28;20064;-79
2022/08/05 07:26:41;;;;;;;11.80;8.43;;;21.70;99.90;;;;;;5054313;28;20087;-79
2022/08/05 07:29:07;;;;;;;9.68;8.18;;;21.60;99.90;;;;;;5053947;28;21168;-80
2022/08/05 07:31:33;;;;;;;10.40;7.13;;;;;;;;;;5050971;28;20040;-76
2022/08/05 07:33:59;;;;;;;10.70;6.35;;;;;;;;;;5065868;28;20410;-76
2022/08/05 07:36:26;;;;;;;10.80;8.25;;;;;;;;;;5057027;28;20029;-77
2022/08/05 07:38:52;;;;;;;11.95;8.35;;;21.60;99.90;;;;;;5051287;28;20052;-76
2022/08/05 07:41:20;;;;;;;11.13;8.25;;;21.80;99.90;;;;;;5053778;28;20634;-77
2022/08/05 07:43:46;;;;;;;12.63;8.52;;;21.90;99.90;;;;;;5058323;28;20036;-76
2022/08/05 07:46:12;;;;;;;13.57;8.05;;;22.00;99.90;;;;;;5057371;28;20025;-76
2022/08/05 07:48:37;;;;;;;10.45;7.60;;;22.10;99.90;;;;;;5063978;28;20047;-76
2022/08/05 07:51:03;;;;;;;9.55;8.27;;;22.30;99.90;;;;;;5057116;28;20063;-76
2022/08/05 07:53:29;;;;;;;10.57;8.27;;;22.50;99.90;;;;;;5059046;28;20115;-76
2022/08/05 07:55:54;;;;;;;9.73;7.40;;;22.60;99.90;;;;;;5048155;28;20469;-76
2022/08/05 07:58:20;;;;;;;8.35;6.32;;;22.70;99.90;;;;;;5048090;28;20040;-76
2022/08/05 08:00:46;;;;;;;9.85;7.40;;;22.80;99.90;;;;;;5054270;28;20028;-76
2022/08/05 08:03:13;;;;;;;9.05;6.25;;;22.90;99.90;;;;;;5053108;28;20055;-76
2022/08/05 08:05:42;;;;;;;9.77;7.25;;;23.00;99.90;;;;;;5053117;28;20150;-76
2022/08/05 08:08:09;;;;;;;10.73;6.70;;;23.10;99.90;;;;;;5056553;28;20123;-76
2022/08/05 08:10:34;;;;;;;11.02;7.43;;;23.20;99.90;;;;;;5048101;28;20083;-76
2022/08/05 08:13:00;;;;;;;11.77;6.43;;;23.20;99.90;;;;;;5047154;28;20258;-76
2022/08/05 08:15:26;;;;;;;10.25;6.80;;;23.30;99.90;;;;;;5049239;28;20400;-76
2022/08/05 08:17:51;;;;;;;7.07;6.38;;;23.40;99.90;;;;;;5051574;28;20029;-76
2022/08/05 08:20:17;;;;;;;7.55;6.28;;;23.40;99.90;;;;;;5053210;28;20552;-77
2022/08/05 08:22:48;;;;;;;10.02;6.78;;;23.40;99.90;;;;;;5060939;28;20029;-77
2022/08/05 08:25:14;;;;;;;9.48;7.10;;;23.40;99.90;;;;;;5052275;28;20104;-76
2022/08/05 08:27:41;;;;;;;11.80;5.88;;;23.30;99.90;;;;;;5050017;28;20104;-77
2022/08/05 08:30:10;;;;;;;11.32;6.28;;;23.20;99.90;;;;;;5057739;28;20090;-77
2022/08/05 08:32:35;;;;;;;12.10;7.30;;;23.20;99.90;;;;;;5058767;28;20032;-77
2022/08/05 08:35:01;;;;;;;10.57;6.53;;;23.10;99.90;;;;;;5062654;28;20038;-76
2022/08/05 08:37:27;;;;;;;9.95;6.35;;;23.10;99.90;;;;;;5066288;28;20488;-76
2022/08/05 08:39:53;;;;;;;8.85;6.55;;;23.20;99.90;;;;;;5049050;28;20052;-77
2022/08/05 08:42:21;;;;;;;9.20;5.68;;;23.20;99.90;;;;;;5053339;28;20025;-77
2022/08/05 08:44:48;;;;;;;10.55;7.22;;;23.30;99.90;;;;;;5054266;28;20032;-76
2022/08/05 08:47:14;;;;;;;10.13;6.70;;;23.30;99.90;;;;;;5054462;28;20025;-76
2022/08/05 08:49:44;;;;;;;7.97;6.28;;;23.30;99.90;;;;;;5044578;28;20044;-76
2022/08/05 08:52:18;;;;;;;8.57;6.30;;;23.50;99.90;;;;;;5052776;28;20029;-77
2022/08/05 08:54:46;;;;;;;8.73;6.00;;;23.80;99.90;;;;;;5055699;28;20128;-77
2022/08/05 08:57:12;;;;;;;6.90;6.20;;;24.20;99.90;;;;;;5065580;28;20044;-77
2022/08/05 08:59:38;;;;;;;10.15;6.05;;;24.50;99.90;;;;;;5067188;28;20033;-77
2022/08/05 09:02:05;;;;;;;12.13;6.25;;;24.80;99.90;;;;;;5065854;28;20320;-77
2022/08/05 09:04:36;;;;;;;8.38;6.40;;;25.00;99.90;;;;;;5070190;28;20153;-77
2022/08/05 09:07:06;;;;;;;5.90;5.30;;;25.00;99.90;;;;;;5062289;28;20041;-78
2022/08/05 09:09:36;;;;;;;6.85;5.82;;;25.00;99.90;;;;;;5052645;28;20169;-77
2022/08/05 09:12:07;;;;;;;8.73;6.28;;;24.90;99.90;;;;;;5073270;28;20036;-77
2022/08/05 09:14:37;;;;;;;6.68;5.70;;;24.80;99.90;;;;;;5073324;28;20039;-78
2022/08/05 09:17:08;;;;;;;7.15;5.78;;;25.00;99.90;;;;;;5069074;28;20097;-77
2022/08/05 09:19:35;;;;;;;8.38;6.55;;;25.30;99.90;;;;;;5070485;28;20123;-78
2022/08/05 09:22:01;;;;;;;10.13;7.35;;;25.30;99.90;;;;;;5082245;28;20391;-78
2022/08/05 09:24:26;;;;;;;11.65;7.07;;;25.10;99.90;;;;;;5058597;28;20293;-78
2022/08/05 09:26:55;;;;;;;9.15;6.50;;;24.80;99.90;;;;;;5075146;28;20055;-78
2022/08/05 09:29:44;;;;;;;10.27;6.75;;;24.60;99.90;;;;;;5070014;28;20060;-77
2022/08/05 09:32:10;;;;;;;10.35;6.72;;;24.40;99.90;;;;;;5057888;28;20024;-77
2022/08/05 09:34:54;;;;;;;8.32;6.40;;;24.20;99.90;;;;;;5060181;28;20876;-78
2022/08/05 09:37:24;;;;;;;11.70;6.97;;;24.10;99.90;;;;;;5081934;28;20036;-77
2022/08/05 09:39:51;;;;;;;7.13;5.75;;;24.20;99.90;;;;;;5060557;28;20083;-77
2022/08/05 09:42:22;;;;;;;7.90;6.20;;;24.30;99.90;;;;;;5057071;28;20050;-78
2022/08/05 09:44:49;;;;;;;8.35;5.80;;;;;;;;;;5068688;28;20029;-79
2022/08/05 09:47:16;;;;;;;6.95;5.35;;;;;;;;;;5058393;28;20122;-79
2022/08/05 09:49:49;;;;;;;9.55;6.20;;;;;;;;;;5054874;28;20492;-79
2022/08/05 09:52:19;;;;;;;6.63;5.55;;;;;;;;;;5052813;28;20095;-79
2022/08/05 09:54:58;;;;;;;6.63;5.43;;;;;;;;;;5070397;28;20033;-79
2022/08/05 09:57:38;;;;;;;9.30;4.95;;;;;;;;;;5056862;28;20028;-79
2022/08/05 10:00:15;;;;;;;6.47;4.70;;;;;;;;;;5056008;28;20021;-79
2022/08/05 10:02:48;;;;;;;7.72;5.03;;;;;;;;;;5058857;28;20033;-79
2022/08/05 10:05:14;;;;;;;;;;;;;;;;;;5057687;28;20017;-79
2022/08/05 10:07:43;;;;;;;7.80;4.55;;;;;;;;;;5054828;28;20372;-79
2022/08/05 10:10:10;;;;;;;5.32;4.40;;;;;;;;;;5051370;28;20021;-80
2022/08/05 10:12:39;;;;;;;6.00;4.07;;;;;;;;;;5067223;28;20171;-79
2022/08/05 10:15:16;;;;;;;7.35;4.40;;;;;;;;;;5063925;28;20035;-79
2022/08/05 10:17:42;;;;;;;7.88;4.57;;;;;;;;;;5054088;28;20032;-79
2022/08/05 10:20:11;;;;;;;4.90;4.13;;;;;;;;;;5044497;28;20057;-79
2022/08/05 10:22:39;;;;;;;7.70;4.90;;;;;;;;;;5061803;28;20027;-79
2022/08/05 10:25:05;;;;;;;7.40;4.18;;;;;;;;;;5054120;28;20016;-79
2022/08/05 10:27:31;;;;;;;5.70;4.40;;;;;;;;;;5069039;28;20035;-79
2022/08/05 10:29:56;;;;;;;4.95;4.13;;;26.50;99.90;;;;;;5055271;28;20021;-79
2022/08/05 10:32:22;;;;;;;7.50;4.28;;;26.60;99.90;;;;;;5058609;28;20751;-79
2022/08/05 10:34:49;;;;;;;6.40;4.40;;;26.70;99.90;;;;;;5059308;28;20546;-80
2022/08/05 10:37:16;;;;;;;6.85;3.90;;;26.80;99.90;;;;;;5062484;28;20493;-79
2022/08/05 10:39:44;;;;;;;5.45;4.07;;;26.70;99.90;;;;;;5054294;28;20045;-78
2022/08/05 10:42:21;;;;;;;5.60;3.72;;;26.70;99.90;;;;;;5062848;28;20063;-78
2022/08/05 10:44:47;;;;;;;5.05;4.22;;;26.80;99.90;;;;;;5051917;28;20545;-78
2022/08/05 10:47:14;;;;;;;5.15;3.90;;;26.80;99.90;;;;;;5053927;28;20074;-79
2022/08/05 10:50:13;;;;;;;7.97;4.10;;;26.80;99.90;;;;;;5046444;28;20033;-78
2022/08/05 10:52:40;;;;;;;4.68;3.78;;;26.80;99.90;;;;;;5048410;28;20046;-80
2022/08/05 10:55:08;;;;;;;7.28;3.85;;;26.80;99.90;;;;;;5049096;28;20044;-80
2022/08/05 10:57:36;;;;;;;4.32;3.80;;;26.90;99.90;;;;;;5050989;28;20497;-80
2022/08/05 11:00:22;;;;;;;4.40;3.78;;;26.90;99.90;;;;;;5049031;28;20048;-81
2022/08/05 11:03:06;;;;;;;4.65;3.90;;;26.80;99.90;;;;;;5071169;28;20032;-80
2022/08/05 11:05:33;;;;;;;4.18;3.78;;;26.90;99.90;;;;;;5054939;28;20245;-80
2022/08/05 11:08:04;;;;;;;5.85;3.92;;;26.90;99.90;;;;;;5059626;28;20108;-80
2022/08/05 11:10:32;;;;;;;4.47;3.65;;;26.90;99.90;;;;;;5058635;28;20029;-80
2022/08/05 11:12:58;;;;;;;5.53;3.90;;;26.90;99.90;;;;;;5046216;28;20025;-81
2022/08/05 11:15:33;;;;;;;5.15;3.88;;;26.80;99.90;;;;;;5052106;28;20689;-80
2022/08/05 11:18:13;;;;;;;3.60;3.30;;;26.70;99.90;;;;;;5053629;28;20480;-81
2022/08/05 11:20:49;;;;;;;5.03;3.75;;;26.70;99.90;;;;;;5057057;28;20426;-81
2022/08/05 11:23:35;;;;;;;3.97;3.58;;;26.70;99.90;;;;;;5050383;28;20051;-80
2022/08/05 11:26:21;;;;;;;5.25;4.05;;;26.90;99.90;;;;;;5046214;28;20512;-73
2022/08/05 11:28:49;;;;;;;6.78;4.25;;;26.90;99.90;;;;;;5045190;28;20484;-73
2022/08/05 11:31:14;;;;;;;6.00;3.70;;;27.10;99.90;;;;;;5046285;28;20029;-73
2022/08/05 11:33:45;;;;;;;4.65;4.18;;;27.20;99.90;;;;;;5054755;28;20025;-73
2022/08/05 11:36:17;;;;;;;4.50;4.10;;;27.30;99.90;;;;;;5048332;28;20420;-73
2022/08/05 11:38:42;;;;;;;5.60;4.38;;;27.30;99.90;;;;;;5044697;28;20548;-74
2022/08/05 11:41:22;;;;;;;10.45;7.70;;;27.30;99.90;;;;;;5046113;28;20112;-74
2022/08/05 11:43:59;;;;;;;10.05;8.35;;;26.90;99.90;;;;;;5051325;28;20468;-74
2022/08/05 11:46:29;;;;;;;12.10;10.57;;;;;;;;;;5045229;28;20029;-74
2022/08/05 11:48:55;;;;;;;14.35;11.15;;;;;;;;;;5052998;28;20021;-73
2022/08/05 11:51:22;;;;;;;14.13;12.60;;;;;;;;;;5047172;28;20365;-74
2022/08/05 11:53:49;;;;;;;17.45;12.93;;;;;;;;;;5052762;28;20029;-74
2022/08/05 11:56:15;;;;;;;17.63;12.63;;;;;;;;;;5044667;28;20025;-73
2022/08/05 11:58:42;;;;;;;15.18;13.50;;;;;;;;;;5053801;28;20021;-74
2022/08/05 12:01:09;;;;;;;18.85;14.52;;;;;;;;;;5049231;28;20064;-74
2022/08/05 12:03:46;;;;;;;14.40;12.65;;;;;;;;;;5046543;28;20047;-74
2022/08/05 12:06:13;;;;;;;15.93;13.27;;;;;;;;;;5048125;28;20028;-75
2022/08/05 12:08:39;;;;;;;16.63;13.60;;;;;;;;;;5043903;28;20035;-75
2022/08/05 12:11:07;;;;;;;14.73;12.60;;;;;;;;;;5045387;28;20044;-74
2022/08/05 12:13:33;;;;;;;15.90;12.20;;;;;;;;;;5049517;28;20029;-74
2022/08/05 12:15:59;;;;;;;18.13;12.88;;;;;;;;;;5048970;28;20479;-75
2022/08/05 12:18:35;;;;;;;14.70;11.40;;;;;;;;;;5048486;28;20055;-74
2022/08/05 12:21:11;;;;;;;10.90;9.70;;;;;;;;;;5065757;28;20052;-74
2022/08/05 12:23:37;;;;;;;11.75;9.98;;;;;;;;;;5062347;28;20025;-76
2022/08/05 12:26:03;;;;;;;12.57;10.35;;;23.70;99.90;;;;;;5052696;28;20492;-74
2022/08/05 12:28:35;;;;;;;12.75;8.48;;;23.60;99.90;;;;;;5062561;28;20051;-75
2022/08/05 12:31:01;;;;;;;8.63;7.30;;;23.40;99.90;;;;;;5052999;28;20036;-75
2022/08/05 12:33:27;;;;;;;9.93;8.23;;;;;;;;;;5055427;28;20040;-75
2022/08/05 12:35:54;;;;;;;12.60;8.82;;;;;;;;;;4705787;28;10000282;-77
2022/08/05 12:38:22;;;;;;;12.80;8.70;;;22.60;99.90;;;;;;5054107;28;20416;-74
2022/08/05 12:40:49;;;;;;;11.40;9.07;;;;;;;;;;5053835;28;20439;-74
2022/08/05 12:43:15;;;;;;;10.90;8.20;;;;;;;;;;5055654;28;20025;-73
2022/08/05 12:46:18;;;;;;;11.68;8.30;;;21.70;99.90;;;;;;5056600;28;20122;-74
2022/08/05 12:48:44;;;;;;;11.10;8.02;;;21.50;99.90;;;;;;5049379;28;20024;-73
2022/08/05 12:51:12;;;;;;;11.73;6.93;;;21.50;99.90;;;;;;5038175;28;20681;-73
2022/08/05 12:53:44;;;;;;;9.57;6.50;;;21.30;99.90;;;;;;5043008;28;20063;-73
2022/08/05 12:56:20;;;;;;;6.15;5.50;;;21.40;99.90;;;;;;5044191;28;20028;-74
2022/08/05 12:59:12;;;;;;;9.20;5.43;;;21.50;99.90;;;;;;5046256;28;20036;-74
2022/08/05 13:01:39;;;;;;;5.18;4.68;;;21.30;99.90;;;;;;5053874;28;20619;-74
2022/08/05 13:04:06;;;;;;;5.25;3.72;;;21.30;99.90;;;;;;5048548;28;20020;-74